createdAt,value
2022-08-11T00:04:36.418Z,2.63
2022-08-11T00:07:21.544Z,2.93
2022-08-11T00:09:51.109Z,3.50
2022-08-11T00:12:22.866Z,3.40
2022-08-11T00:15:02.632Z,3.47
2022-08-11T00:17:36.690Z,3.20
2022-08-11T00:20:16.581Z,3.03
2022-08-11T00:23:29.911Z,3.37
2022-08-11T00:26:34.479Z,3.33
2022-08-11T00:29:11.211Z,3.13
2022-08-11T00:31:50.814Z,3.23
2022-08-11T00:34:26.187Z,3.77
2022-08-11T00:37:26.897Z,3.30
2022-08-11T00:40:23.844Z,3.30
2022-08-11T00:43:05.833Z,3.13
2022-08-11T00:45:52.828Z,3.10
2022-08-11T00:48:31.335Z,3.23
2022-08-11T00:51:12.134Z,3.63
2022-08-11T00:53:57.771Z,2.70
2022-08-11T00:57:37.748Z,3.23
2022-08-11T01:00:18.420Z,3.30
2022-08-11T01:03:29.545Z,2.50
2022-08-11T01:06:50.396Z,4.00
2022-08-11T01:10:13.174Z,3.40
2022-08-11T01:12:54.454Z,3.73
2022-08-11T01:16:23.144Z,3.37
2022-08-11T01:20:45.789Z,3.37
2022-08-11T01:23:07.283Z,4.20
2022-08-11T01:26:36.590Z,3.60
2022-08-11T01:29:57.639Z,3.57
2022-08-11T01:33:20.302Z,3.30
2022-08-11T01:36:53.439Z,4.10
2022-08-11T01:40:01.681Z,4.00
2022-08-11T01:43:38.143Z,3.70
2022-08-11T01:46:16.775Z,3.30
2022-08-11T01:48:55.469Z,3.40
2022-08-11T01:51:47.118Z,3.40
2022-08-11T01:54:28.800Z,3.40
2022-08-11T01:57:14.979Z,3.37
2022-08-11T01:59:52.914Z,3.50
2022-08-11T02:02:48.219Z,3.47
2022-08-11T02:05:40.792Z,3.07
2022-08-11T02:08:33.286Z,3.70
2022-08-11T02:11:35.845Z,3.97
2022-08-11T02:14:20.857Z,4.00
2022-08-11T02:17:16.237Z,3.40
2022-08-11T02:20:14.113Z,4.37
2022-08-11T02:24:04.468Z,3.43
2022-08-11T02:26:14.641Z,3.40
2022-08-11T02:29:05.619Z,3.27
2022-08-11T02:32:24.242Z,4.37
2022-08-11T02:35:12.216Z,3.47
2022-08-11T02:38:03.618Z,3.20
2022-08-11T02:40:48.065Z,3.60
2022-08-11T02:43:38.608Z,4.13
2022-08-11T02:46:25.063Z,3.40
2022-08-11T02:49:24.190Z,3.07
2022-08-11T02:52:08.777Z,4.07
2022-08-11T02:54:52.267Z,3.77
2022-08-11T02:57:30.756Z,3.80
2022-08-11T03:00:11.013Z,4.07
2022-08-11T03:03:00.777Z,3.87
2022-08-11T03:05:50.638Z,3.60
2022-08-11T03:08:41.604Z,3.93
2022-08-11T03:11:36.434Z,3.80
2022-08-11T03:14:39.624Z,4.27
2022-08-11T03:17:27.390Z,4.40
2022-08-11T03:20:38.086Z,5.17
2022-08-11T03:23:20.469Z,3.80
2022-08-11T03:26:02.715Z,4.10
2022-08-11T03:28:36.446Z,4.70
2022-08-11T03:31:28.065Z,4.00
2022-08-11T03:34:08.077Z,4.03
2022-08-11T03:37:39.759Z,5.57
2022-08-11T03:40:42.429Z,4.53
2022-08-11T03:43:32.371Z,4.40
2022-08-11T03:46:13.858Z,4.30
2022-08-11T03:48:59.960Z,4.47
2022-08-11T03:51:51.853Z,5.60
2022-08-11T03:54:33.821Z,4.60
2022-08-11T03:58:04.444Z,4.77
2022-08-11T04:01:16.560Z,4.97
2022-08-11T04:04:21.671Z,4.37
2022-08-11T04:07:55.730Z,5.00
2022-08-11T04:10:48.050Z,4.40
2022-08-11T04:14:24.853Z,4.53
2022-08-11T04:17:38.133Z,5.00
2022-08-11T04:20:29.762Z,4.60
2022-08-11T04:24:36.971Z,4.90
2022-08-11T04:27:08.191Z,4.90
2022-08-11T04:30:05.486Z,4.37
2022-08-11T04:33:16.684Z,4.90
2022-08-11T04:36:01.673Z,5.40
2022-08-11T04:39:03.334Z,5.53
2022-08-11T04:42:31.500Z,4.60
2022-08-11T04:45:40.916Z,4.60
2022-08-11T04:48:59.546Z,4.37
2022-08-11T04:52:37.459Z,4.60
2022-08-11T04:55:48.096Z,3.93
2022-08-11T04:58:45.930Z,4.70
2022-08-11T05:01:46.110Z,4.37
2022-08-11T05:05:16.616Z,4.87
2022-08-11T05:08:54.157Z,3.87
2022-08-11T05:12:16.054Z,4.63
2022-08-11T05:15:10.331Z,3.50
2022-08-11T05:18:02.844Z,4.40
2022-08-11T05:21:04.996Z,4.13
2022-08-11T05:23:58.758Z,4.10
2022-08-11T05:26:49.375Z,4.50
2022-08-11T05:30:03.179Z,4.40
2022-08-11T05:33:01.699Z,4.00
2022-08-11T05:36:01.350Z,4.37
2022-08-11T05:38:55.056Z,4.20
2022-08-11T05:41:44.728Z,4.27
2022-08-11T05:44:37.540Z,5.10
2022-08-11T05:47:28.680Z,4.57
2022-08-11T05:50:15.721Z,4.57
2022-08-11T05:53:09.280Z,4.63
2022-08-11T05:56:02.876Z,4.10
2022-08-11T05:58:43.491Z,3.73
2022-08-11T06:01:15.220Z,3.50
2022-08-11T06:04:09.794Z,4.40
2022-08-11T06:06:45.351Z,4.07
2022-08-11T06:09:19.386Z,4.20
2022-08-11T06:11:48.723Z,4.33
2022-08-11T06:14:18.483Z,4.60
2022-08-11T06:16:51.456Z,4.43
2022-08-11T06:19:24.954Z,4.23
2022-08-11T06:21:55.002Z,4.90
2022-08-11T06:24:29.330Z,4.50
2022-08-11T06:27:12.256Z,4.40
2022-08-11T06:29:54.703Z,4.60
2022-08-11T06:32:34.088Z,4.50
2022-08-11T06:35:22.809Z,3.90
2022-08-11T06:38:08.139Z,4.33
2022-08-11T06:41:05.345Z,4.40
2022-08-11T06:43:55.529Z,4.40
2022-08-11T06:46:37.269Z,3.80
2022-08-11T06:49:27.232Z,4.20
2022-08-11T06:52:01.777Z,4.20
2022-08-11T06:54:36.076Z,3.63
2022-08-11T06:57:29.778Z,4.37
2022-08-11T07:00:23.566Z,4.63
2022-08-11T07:03:00.831Z,3.43
2022-08-11T07:05:48.280Z,5.37
2022-08-11T07:09:29.091Z,5.10
2022-08-11T07:13:02.067Z,3.17
2022-08-11T07:16:12.769Z,2.53
2022-08-11T07:18:59.016Z,2.77
2022-08-11T07:22:02.832Z,2.57
2022-08-11T07:24:59.298Z,2.63
2022-08-11T07:28:02.349Z,2.67
2022-08-11T07:30:34.309Z,2.93
2022-08-11T07:33:10.387Z,2.57
2022-08-11T07:35:55.765Z,2.83
2022-08-11T07:38:43.464Z,2.40
2022-08-11T07:41:24.747Z,2.53
2022-08-11T07:44:08.917Z,2.37
2022-08-11T07:47:00.876Z,2.67
2022-08-11T07:49:54.819Z,2.73
2022-08-11T07:52:33.818Z,2.60
2022-08-11T07:55:08.484Z,3.27
2022-08-11T08:01:22.942Z,2.93
2022-08-11T08:04:10.455Z,3.20
2022-08-11T08:06:59.259Z,2.73
2022-08-11T08:09:46.877Z,2.67
2022-08-11T08:12:39.398Z,3.40
2022-08-11T08:15:34.823Z,2.70
2022-08-11T08:18:09.841Z,2.57
2022-08-11T08:20:57.172Z,2.90
2022-08-11T08:23:36.167Z,2.30
2022-08-11T08:26:32.044Z,2.83
2022-08-11T08:29:19.176Z,2.93
2022-08-11T08:31:50.735Z,3.10
2022-08-11T08:34:23.908Z,3.00
2022-08-11T08:36:54.095Z,2.73
2022-08-11T08:39:26.025Z,3.13
2022-08-11T08:41:58.160Z,3.20
2022-08-11T08:44:40.940Z,3.00
2022-08-11T08:47:41.440Z,3.00
2022-08-11T08:50:19.681Z,2.57
2022-08-11T08:52:58.290Z,2.90
2022-08-11T08:55:30.536Z,2.40
2022-08-11T08:58:04.129Z,3.40
2022-08-11T09:00:43.882Z,2.90
2022-08-11T09:06:23.430Z,3.23
2022-08-11T09:08:56.599Z,3.33
2022-08-11T09:11:46.353Z,2.40
2022-08-11T09:14:24.961Z,2.80
2022-08-11T09:17:06.431Z,3.10
2022-08-11T09:19:41.361Z,3.33
2022-08-11T09:22:29.903Z,3.10
2022-08-11T09:25:22.434Z,3.00
2022-08-11T09:27:56.681Z,2.63
2022-08-11T09:30:27.626Z,3.20
2022-08-11T09:33:17.833Z,2.60
2022-08-11T09:35:53.460Z,3.17
2022-08-11T09:38:49.427Z,3.07
2022-08-11T09:42:01.067Z,2.83
2022-08-11T09:44:51.849Z,2.40
2022-08-11T09:47:30.122Z,2.90
2022-08-11T09:50:09.631Z,2.90
2022-08-11T09:53:03.579Z,3.00
2022-08-11T09:55:53.582Z,2.77
2022-08-11T09:58:42.104Z,2.83
2022-08-11T10:01:29.632Z,2.70
2022-08-11T10:04:15.569Z,2.87
2022-08-11T10:07:05.600Z,2.77
2022-08-11T10:09:53.615Z,3.07
2022-08-11T10:12:27.284Z,3.20
2022-08-11T10:15:22.715Z,3.50
2022-08-11T10:18:26.467Z,2.70
2022-08-11T10:22:07.870Z,3.10
2022-08-11T10:25:20.238Z,3.30
2022-08-11T10:28:32.775Z,3.10
2022-08-11T10:31:15.042Z,3.13
2022-08-11T10:34:13.267Z,3.37
2022-08-11T10:36:50.580Z,3.33
2022-08-11T10:42:57.111Z,2.87
2022-08-11T10:45:47.035Z,3.20
2022-08-11T10:48:17.750Z,2.70
2022-08-11T10:51:15.072Z,2.90
2022-08-11T10:54:14.424Z,2.70
2022-08-11T10:57:04.463Z,3.17
2022-08-11T10:59:50.146Z,2.60
2022-08-11T11:03:24.433Z,2.73
2022-08-11T11:06:28.273Z,2.83
2022-08-11T11:09:22.751Z,2.47
2022-08-11T11:12:15.044Z,2.40
2022-08-11T11:15:03.673Z,2.97
2022-08-11T11:17:57.827Z,2.70
2022-08-11T11:20:36.316Z,3.03
2022-08-11T11:23:19.130Z,2.77
2022-08-11T11:26:35.345Z,3.20
2022-08-11T11:30:22.588Z,2.97
2022-08-11T11:34:12.404Z,2.60
2022-08-11T11:36:54.543Z,3.13
2022-08-11T11:39:33.161Z,2.97
2022-08-11T11:42:11.539Z,3.33
2022-08-11T11:44:44.803Z,2.70
2022-08-11T11:47:21.702Z,2.60
2022-08-11T11:50:11.889Z,2.83
2022-08-11T11:52:48.881Z,3.10
2022-08-11T11:55:31.164Z,2.80
2022-08-11T11:58:44.302Z,2.30
2022-08-11T12:01:34.201Z,2.80
2022-08-11T12:04:08.405Z,2.70
2022-08-11T12:07:30.347Z,2.70
2022-08-11T12:10:19.381Z,2.60
2022-08-11T12:13:07.260Z,2.67
2022-08-11T12:16:31.598Z,3.10
2022-08-11T12:18:32.263Z,3.03
2022-08-11T12:21:05.040Z,2.93
2022-08-11T12:23:53.524Z,2.80
2022-08-11T12:26:41.217Z,2.73
2022-08-11T12:29:13.171Z,3.10
2022-08-11T12:31:44.140Z,2.83
2022-08-11T12:34:15.578Z,2.57
2022-08-11T12:36:56.797Z,2.90
2022-08-11T12:40:16.286Z,3.00
2022-08-11T12:43:00.151Z,3.17
2022-08-11T12:45:33.982Z,2.63
2022-08-11T12:48:58.806Z,3.50
2022-08-11T12:52:11.160Z,3.10
2022-08-11T12:54:38.978Z,2.70
2022-08-11T12:57:36.391Z,2.90
2022-08-11T13:00:26.623Z,2.90
2022-08-11T13:03:18.579Z,2.83
2022-08-11T13:05:49.704Z,2.97
2022-08-11T13:08:21.835Z,2.80
2022-08-11T13:11:11.361Z,3.10
2022-08-11T13:13:53.954Z,2.50
2022-08-11T13:16:56.102Z,3.20
2022-08-11T13:19:35.027Z,3.20
2022-08-11T13:22:41.412Z,2.90
2022-08-11T13:25:39.083Z,3.30
2022-08-11T13:28:42.442Z,3.20
2022-08-11T13:31:31.759Z,2.70
2022-08-11T13:37:12.886Z,3.20
2022-08-11T13:39:51.691Z,2.90
2022-08-11T13:42:22.569Z,2.60
2022-08-11T13:44:56.688Z,3.30
2022-08-11T13:47:29.744Z,2.53
2022-08-11T13:50:19.497Z,3.70
2022-08-11T13:53:03.935Z,2.77
2022-08-11T13:56:41.856Z,2.93
2022-08-11T13:59:31.193Z,2.97
2022-08-11T14:02:22.096Z,2.87
2022-08-11T14:05:07.150Z,2.70
2022-08-11T14:08:37.315Z,2.80
2022-08-11T14:12:21.920Z,2.63
2022-08-11T14:14:23.166Z,2.60
2022-08-11T14:17:01.136Z,2.93
2022-08-11T14:19:42.134Z,2.93
2022-08-11T14:22:15.905Z,3.10
2022-08-11T14:24:49.650Z,3.47
2022-08-11T14:28:30.904Z,3.13
2022-08-11T14:30:29.837Z,2.70
2022-08-11T14:33:01.386Z,2.30
2022-08-11T14:35:49.430Z,2.70
2022-08-11T14:38:22.399Z,2.50
2022-08-11T14:41:13.667Z,2.80
2022-08-11T14:44:13.246Z,3.30
2022-08-11T14:47:02.740Z,3.30
2022-08-11T14:49:49.218Z,2.50
2022-08-11T14:56:12.602Z,2.97
2022-08-11T14:58:44.897Z,3.37
2022-08-11T15:05:19.899Z,3.13
2022-08-11T15:12:33.639Z,2.70
2022-08-11T15:15:26.328Z,2.63
2022-08-11T15:18:00.194Z,2.97
2022-08-11T15:21:13.007Z,3.13
2022-08-11T15:24:01.130Z,2.57
2022-08-11T15:27:15.732Z,3.03
2022-08-11T15:30:10.751Z,3.03
2022-08-11T15:33:12.493Z,3.43
2022-08-11T15:36:03.413Z,3.27
2022-08-11T15:38:39.555Z,2.67
2022-08-11T15:41:35.751Z,3.37
2022-08-11T15:44:58.996Z,3.37
2022-08-11T15:47:30.882Z,3.60
2022-08-11T15:50:13.763Z,2.97
2022-08-11T15:53:11.477Z,2.47
2022-08-11T15:55:48.705Z,2.90
2022-08-11T16:02:59.912Z,3.20
2022-08-11T16:05:45.510Z,2.83
2022-08-11T16:08:32.752Z,2.40
2022-08-11T16:11:10.858Z,2.70
2022-08-11T16:16:58.065Z,2.73
2022-08-11T16:19:35.198Z,2.33
2022-08-11T16:22:08.535Z,2.20
2022-08-11T16:27:02.157Z,2.13
2022-08-11T16:27:42.216Z,2.40
2022-08-11T16:30:14.917Z,2.70
2022-08-11T16:32:49.108Z,3.07
2022-08-11T16:35:49.967Z,2.23
2022-08-11T16:38:35.736Z,2.77
2022-08-11T16:41:11.882Z,2.40
2022-08-11T16:44:18.808Z,2.00
2022-08-11T16:47:08.994Z,2.60
2022-08-11T16:49:41.034Z,2.93
2022-08-11T16:52:13.060Z,2.70
2022-08-11T16:54:45.625Z,2.33
2022-08-11T16:57:36.089Z,2.90
2022-08-11T17:00:14.885Z,2.07
2022-08-11T17:03:08.620Z,2.70
2022-08-11T17:06:04.727Z,2.70
2022-08-11T17:09:01.668Z,2.83
2022-08-11T17:11:54.413Z,2.30
2022-08-11T17:14:35.614Z,2.83
2022-08-11T17:17:11.796Z,2.80
2022-08-11T17:20:40.881Z,2.50
2022-08-11T17:23:03.765Z,2.63
2022-08-11T17:26:03.293Z,2.23
2022-08-11T17:28:28.511Z,2.47
2022-08-11T17:31:21.888Z,2.40
2022-08-11T17:34:12.276Z,2.77
2022-08-11T17:36:45.697Z,2.53
2022-08-11T17:39:16.709Z,2.20
2022-08-11T17:42:07.208Z,2.10
2022-08-11T17:44:55.010Z,2.63
2022-08-11T17:47:44.826Z,2.63
2022-08-11T17:50:16.997Z,2.30
2022-08-11T17:53:07.190Z,2.47
2022-08-11T17:55:57.845Z,2.17
2022-08-11T17:58:48.263Z,2.47
2022-08-11T18:01:20.529Z,2.27
2022-08-11T18:03:57.932Z,2.67
2022-08-11T18:06:34.694Z,2.90
2022-08-11T18:09:29.207Z,3.13
2022-08-11T18:12:16.994Z,2.97
2022-08-11T18:15:08.514Z,3.20
2022-08-11T18:17:56.114Z,2.53
2022-08-11T18:20:43.401Z,2.87
2022-08-11T18:23:40.664Z,2.77
2022-08-11T18:26:39.912Z,2.33
2022-08-11T18:29:27.385Z,2.97
2022-08-11T18:32:21.267Z,2.80
2022-08-11T18:35:12.909Z,2.60
2022-08-11T18:38:06.235Z,2.63
2022-08-11T18:40:56.405Z,2.50
2022-08-11T18:43:47.782Z,3.30
2022-08-11T18:46:36.910Z,2.10
2022-08-11T18:50:01.562Z,2.40
2022-08-11T18:52:40.159Z,2.73
2022-08-11T18:55:33.820Z,2.47
2022-08-11T18:58:24.355Z,2.60
2022-08-11T19:01:17.541Z,2.47
2022-08-11T19:04:11.025Z,3.30
2022-08-11T19:07:00.265Z,2.37
2022-08-11T19:09:51.083Z,2.60
2022-08-11T19:12:48.710Z,3.30
2022-08-11T19:15:39.031Z,2.60
2022-08-11T19:18:59.538Z,3.10
2022-08-11T19:21:49.001Z,2.97
2022-08-11T19:24:40.057Z,2.30
2022-08-11T19:27:43.622Z,2.67
2022-08-11T19:30:39.132Z,2.30
2022-08-11T19:33:59.728Z,2.20
2022-08-11T19:37:08.500Z,3.00
2022-08-11T19:39:58.585Z,2.87
2022-08-11T19:42:55.808Z,3.13
2022-08-11T19:45:43.264Z,2.60
2022-08-11T19:49:07.285Z,2.00
2022-08-11T19:52:18.555Z,2.67
2022-08-11T19:55:09.412Z,2.63
2022-08-11T19:58:00.112Z,2.30
2022-08-11T20:00:48.363Z,2.40
2022-08-11T20:03:34.966Z,2.50
2022-08-11T20:06:27.312Z,2.23
2022-08-11T20:09:20.314Z,3.10
2022-08-11T20:12:12.748Z,2.47
2022-08-11T20:15:01.641Z,2.60
2022-08-11T20:17:55.164Z,2.20
2022-08-11T20:20:44.123Z,2.60
2022-08-11T20:23:35.528Z,1.97
2022-08-11T20:26:31.839Z,3.00
2022-08-11T20:29:20.175Z,2.93
2022-08-11T20:32:09.789Z,2.57
2022-08-11T20:34:59.068Z,2.53
2022-08-11T20:37:51.085Z,3.10
2022-08-11T20:40:42.771Z,2.93
2022-08-11T20:44:08.206Z,2.90
2022-08-11T20:46:39.226Z,3.00
2022-08-11T20:49:45.079Z,2.80
2022-08-11T20:52:39.493Z,2.53
2022-08-11T20:55:51.864Z,2.80
2022-08-11T21:01:58.976Z,3.07
2022-08-11T21:06:09.547Z,2.43
2022-08-11T21:09:21.410Z,2.17
2022-08-11T21:12:17.235Z,2.60
2022-08-11T21:15:14.253Z,2.77
2022-08-11T21:18:28.316Z,2.20
2022-08-11T21:21:18.700Z,2.97
2022-08-11T21:24:09.227Z,2.40
2022-08-11T21:27:03.615Z,2.10
2022-08-11T21:29:54.191Z,2.00
2022-08-11T21:32:44.863Z,3.33
2022-08-11T21:35:31.771Z,2.33
2022-08-11T21:38:24.988Z,2.70
2022-08-11T21:41:12.678Z,2.63
2022-08-11T21:44:01.671Z,2.60
2022-08-11T21:46:50.243Z,2.30
2022-08-11T21:49:40.697Z,2.47
2022-08-11T21:52:27.563Z,2.67
2022-08-11T21:55:14.942Z,2.23
2022-08-11T21:58:02.707Z,2.60
2022-08-11T22:00:49.923Z,3.13
2022-08-11T22:03:47.699Z,2.83
2022-08-11T22:06:40.171Z,3.30
2022-08-11T22:09:26.834Z,2.27
2022-08-11T22:12:29.480Z,2.80
2022-08-11T22:15:21.142Z,2.77
2022-08-11T22:18:07.585Z,2.83
2022-08-11T22:20:54.272Z,2.47
2022-08-11T22:23:43.421Z,2.33
2022-08-11T22:26:32.115Z,3.23
2022-08-11T22:29:19.938Z,2.80
2022-08-11T22:32:29.492Z,2.77
2022-08-11T22:35:16.625Z,2.73
2022-08-11T22:38:05.817Z,2.60
2022-08-11T22:40:55.605Z,2.53
2022-08-11T22:43:42.159Z,2.87
2022-08-11T22:46:28.789Z,3.00
2022-08-11T22:49:16.715Z,2.80
2022-08-11T22:52:03.900Z,2.13
2022-08-11T22:54:52.741Z,2.60
2022-08-11T22:57:41.210Z,2.90
2022-08-11T23:00:48.559Z,2.60
2022-08-11T23:03:37.992Z,2.67
2022-08-11T23:06:26.113Z,2.70
2022-08-11T23:09:13.886Z,2.73
2022-08-11T23:12:07.278Z,2.50
2022-08-11T23:14:59.727Z,2.53
2022-08-11T23:17:47.058Z,2.80
2022-08-11T23:20:36.697Z,2.50
2022-08-11T23:23:29.233Z,2.80
2022-08-11T23:26:17.285Z,2.40
2022-08-11T23:29:05.277Z,2.60
2022-08-11T23:31:55.356Z,2.33
2022-08-11T23:35:03.540Z,2.87
2022-08-11T23:38:00.329Z,3.00
2022-08-11T23:40:46.338Z,2.57
2022-08-11T23:43:38.806Z,2.57
2022-08-11T23:46:25.543Z,2.63
2022-08-11T23:49:18.279Z,2.60
2022-08-11T23:52:06.413Z,2.70
2022-08-11T23:54:54.171Z,2.83
2022-08-11T23:57:47.934Z,2.80
